Time;durP1;ratioP1;P1;durP2;ratioP2;P2;SDS_P1;SDS_P2;PMS_P1;PMS_P2;Temp;Humidity;BMP_temperature;BMP_pressure;BME280_temperature;BME280_humidity;BME280_pressure;Samples;Min_cycle;Max_cycle;Signal;HPM_P1;HPM_P2
2021/07/25 00:01:59;;;;;;;16.43;14.80;;;19.50;99.90;;;;;;6191385;23;20941;-84
2021/07/25 00:04:26;;;;;;;15.30;13.70;;;19.30;99.90;;;;;;6192116;23;20413;-84
2021/07/25 00:06:52;;;;;;;15.40;13.73;;;19.30;99.90;;;;;;6191663;23;20417;-84
2021/07/25 00:09:19;;;;;;;14.70;13.30;;;19.30;99.90;;;;;;6191577;23;20449;-84
2021/07/25 00:11:46;;;;;;;16.50;12.60;;;19.30;99.90;;;;;;6192052;23;20444;-84
2021/07/25 00:14:15;;;;;;;15.10;13.63;;;19.40;99.90;;;;;;6192200;23;20398;-84
2021/07/25 00:16:42;;;;;;;15.10;13.70;;;19.40;99.90;;;;;;6192287;23;20427;-84
2021/07/25 00:19:12;;;;;;;13.73;12.43;;;19.40;99.90;;;;;;6192440;23;20486;-84
2021/07/25 00:21:38;;;;;;;16.03;14.20;;;19.50;99.90;;;;;;6192000;23;20489;-85
2021/07/25 00:24:05;;;;;;;13.43;12.17;;;19.50;99.90;;;;;;6191588;23;20424;-84
2021/07/25 00:26:37;;;;;;;16.23;11.60;;;19.60;99.90;;;;;;6192022;23;20441;-84
2021/07/25 00:29:04;;;;;;;14.60;13.20;;;19.60;99.90;;;;;;6191441;23;20457;-82
2021/07/25 00:31:33;;;;;;;13.17;11.87;;;19.60;99.90;;;;;;6191108;23;20472;-82
2021/07/25 00:34:00;;;;;;;15.87;14.27;;;19.60;99.90;;;;;;6191089;23;20413;-82
2021/07/25 00:36:27;;;;;;;14.30;12.80;;;19.60;99.90;;;;;;6192066;23;20406;-84
2021/07/25 00:38:54;;;;;;;13.57;12.23;;;19.50;99.90;;;;;;6191384;23;20401;-84
2021/07/25 00:41:21;;;;;;;14.70;13.30;;;19.40;99.90;;;;;;6191220;23;20403;-84
2021/07/25 00:43:48;;;;;;;13.03;11.93;;;19.30;99.90;;;;;;6191170;23;20417;-84
2021/07/25 00:46:17;;;;;;;20.40;13.90;;;19.40;99.90;;;;;;6191442;23;20416;-84
2021/07/25 00:48:46;;;;;;;14.67;13.17;;;19.40;99.90;;;;;;6191398;23;20440;-84
2021/07/25 00:51:13;;;;;;;16.27;14.57;;;19.30;99.90;;;;;;6191922;23;20438;-85
2021/07/25 00:53:42;;;;;;;16.13;13.27;;;19.20;99.90;;;;;;6191586;23;20416;-86
2021/07/25 00:56:11;;;;;;;17.10;15.50;;;19.20;99.90;;;;;;6192075;23;20402;-85
2021/07/25 00:58:38;;;;;;;17.23;13.63;;;19.20;99.90;;;;;;6191583;23;20412;-86
2021/07/25 01:01:06;;;;;;;14.00;12.50;;;19.20;99.90;;;;;;6191660;23;20432;-85
2021/07/25 01:03:45;;;;;;;15.00;13.40;;;19.20;99.90;;;;;;6191229;23;20421;-83
2021/07/25 01:06:23;;;;;;;16.27;14.80;;;19.20;99.90;;;;;;6192050;23;20401;-83
2021/07/25 01:08:55;;;;;;;13.50;12.20;;;19.00;99.90;;;;;;6194579;23;20467;-86
2021/07/25 01:11:23;;;;;;;15.20;13.60;;;19.10;99.90;;;;;;6193429;23;20461;-86
2021/07/25 01:13:52;;;;;;;14.97;13.33;;;19.10;99.90;;;;;;6193719;23;20409;-86
2021/07/25 01:16:20;;;;;;;15.20;13.80;;;19.20;99.90;;;;;;6193169;23;20409;-83
2021/07/25 01:18:48;;;;;;;15.90;14.10;;;19.20;99.90;;;;;;6194235;23;20398;-83
2021/07/25 01:21:18;;;;;;;15.70;14.23;;;19.30;99.90;;;;;;6194124;23;20830;-86
2021/07/25 01:23:45;;;;;;;15.07;13.57;;;19.30;99.90;;;;;;6193679;23;20409;-85
2021/07/25 01:26:14;;;;;;;15.37;13.93;;;19.40;99.90;;;;;;6193441;23;20418;-85
2021/07/25 01:28:46;;;;;;;15.77;14.27;;;19.40;99.90;;;;;;6193327;23;20448;-85
2021/07/25 01:31:16;;;;;;;14.30;12.90;;;19.40;99.90;;;;;;6193427;23;20436;-85
2021/07/25 01:33:45;;;;;;;15.10;12.90;;;19.40;99.90;;;;;;6193640;23;20420;-84
2021/07/25 01:36:12;;;;;;;14.47;12.97;;;19.40;99.90;;;;;;6192929;23;20428;-84
2021/07/25 01:38:41;;;;;;;19.23;13.30;;;19.50;99.90;;;;;;6197250;23;20402;-85
2021/07/25 01:41:10;;;;;;;17.33;15.00;;;19.50;99.90;;;;;;6201798;23;20432;-85
2021/07/25 01:43:38;;;;;;;19.70;14.40;;;19.40;99.90;;;;;;6199100;23;20406;-85
2021/07/25 01:46:05;;;;;;;16.00;14.37;;;19.30;99.90;;;;;;6194046;23;20402;-84
2021/07/25 01:48:32;;;;;;;17.53;15.23;;;19.20;99.90;;;;;;6193948;23;20452;-85
2021/07/25 01:50:59;;;;;;;15.13;13.53;;;19.10;99.90;;;;;;6193420;23;20413;-85
2021/07/25 01:53:26;;;;;;;15.27;13.97;;;19.20;99.90;;;;;;6193330;23;20412;-85
2021/07/25 01:55:54;;;;;;;14.90;13.40;;;19.20;99.90;;;;;;6193242;23;20414;-85
2021/07/25 01:58:20;;;;;;;19.10;14.60;;;19.20;99.90;;;;;;6192955;23;20411;-85
2021/07/25 02:00:47;;;;;;;16.77;15.17;;;19.20;99.90;;;;;;6194122;23;20424;-84
2021/07/25 02:03:19;;;;;;;21.00;16.50;;;19.20;99.90;;;;;;6193532;23;20419;-85
2021/07/25 02:05:46;;;;;;;16.33;14.83;;;19.10;99.90;;;;;;6192853;23;20845;-84
2021/07/25 02:08:13;;;;;;;17.83;15.97;;;19.10;99.90;;;;;;6194195;23;20451;-85
2021/07/25 02:10:43;;;;;;;16.57;14.13;;;19.10;99.90;;;;;;6193493;23;20424;-85
2021/07/25 02:13:12;;;;;;;16.27;14.77;;;19.00;99.90;;;;;;6192909;23;20420;-85
2021/07/25 02:15:39;;;;;;;16.10;14.47;;;19.00;99.90;;;;;;6193738;23;20414;-84
2021/07/25 02:18:06;;;;;;;19.10;14.57;;;18.90;99.90;;;;;;6192989;23;20418;-85
2021/07/25 02:20:33;;;;;;;16.43;14.93;;;18.90;99.90;;;;;;6193236;23;20413;-85
2021/07/25 02:23:00;;;;;;;17.70;15.93;;;18.90;99.90;;;;;;6192916;23;20432;-84
2021/07/25 02:25:27;;;;;;;19.10;16.87;;;18.90;99.90;;;;;;6193399;23;20413;-85
2021/07/25 02:27:54;;;;;;;18.30;16.53;;;18.90;99.90;;;;;;6193238;23;20432;-84
2021/07/25 02:30:22;;;;;;;19.33;17.63;;;18.80;99.90;;;;;;6192915;23;20408;-85
2021/07/25 02:32:48;;;;;;;21.13;19.17;;;18.80;99.90;;;;;;6192593;23;20429;-84
2021/07/25 02:35:15;;;;;;;18.23;16.43;;;18.80;99.90;;;;;;6193592;23;20406;-85
2021/07/25 02:37:42;;;;;;;20.27;18.27;;;18.90;99.90;;;;;;6193728;23;20405;-85
2021/07/25 02:40:10;;;;;;;18.87;16.97;;;18.90;99.90;;;;;;6193548;23;20402;-85
2021/07/25 02:42:37;;;;;;;19.60;17.60;;;19.00;99.90;;;;;;6193273;23;20436;-85
2021/07/25 02:45:05;;;;;;;20.27;17.07;;;19.00;99.90;;;;;;6193745;23;20419;-84
2021/07/25 02:47:33;;;;;;;16.60;14.90;;;19.10;99.90;;;;;;6192673;23;20918;-85
2021/07/25 02:49:59;;;;;;;19.80;17.80;;;19.20;99.90;;;;;;6191900;23;20445;-84
2021/07/25 02:52:26;;;;;;;20.27;18.23;;;19.20;99.90;;;;;;6192131;23;20433;-85
2021/07/25 02:54:53;;;;;;;17.67;15.93;;;19.20;99.90;;;;;;6194191;23;20409;-83
2021/07/25 02:57:19;;;;;;;17.83;16.07;;;19.20;99.90;;;;;;6185867;23;20414;-82
2021/07/25 02:59:46;;;;;;;16.33;14.73;;;19.20;99.90;;;;;;6187748;23;20420;-81
2021/07/25 03:02:13;;;;;;;17.13;15.53;;;19.30;99.90;;;;;;6190348;23;21047;-81
2021/07/25 03:04:41;;;;;;;18.67;16.97;;;19.30;99.90;;;;;;6191007;23;20410;-82
2021/07/25 03:07:08;;;;;;;15.93;14.30;;;19.40;99.90;;;;;;6191672;23;20421;-82
2021/07/25 03:09:35;;;;;;;14.77;13.20;;;19.40;99.90;;;;;;6191675;23;20448;-83
2021/07/25 03:12:01;;;;;;;14.70;13.23;;;19.40;99.90;;;;;;6191408;23;20447;-83
2021/07/25 03:14:28;;;;;;;14.83;13.47;;;19.40;99.90;;;;;;6191812;23;20390;-83
2021/07/25 03:16:55;;;;;;;15.63;13.33;;;19.40;99.90;;;;;;6191972;23;20409;-83
2021/07/25 03:19:22;;;;;;;14.60;13.20;;;19.50;99.90;;;;;;6193329;23;20416;-83
2021/07/25 03:21:50;;;;;;;14.77;13.30;;;19.50;99.90;;;;;;6192978;23;20426;-84
2021/07/25 03:24:16;;;;;;;14.67;13.27;;;19.50;99.90;;;;;;6192815;23;20413;-83
2021/07/25 03:26:43;;;;;;;14.30;12.90;;;19.50;99.90;;;;;;6192993;23;20413;-83
2021/07/25 03:29:10;;;;;;;15.23;13.67;;;19.50;99.90;;;;;;6192401;23;20445;-83
2021/07/25 03:31:36;;;;;;;15.20;13.70;;;19.40;99.90;;;;;;6191387;23;20440;-83
2021/07/25 03:34:04;;;;;;;15.63;13.83;;;19.20;99.90;;;;;;6192271;23;20740;-83
2021/07/25 03:36:31;;;;;;;16.07;14.50;;;19.20;99.90;;;;;;6192756;23;20413;-83
2021/07/25 03:38:59;;;;;;;18.70;16.50;;;19.20;99.90;;;;;;6192537;23;20792;-82
2021/07/25 03:41:25;;;;;;;14.87;13.33;;;19.30;99.90;;;;;;6192477;23;20436;-83
2021/07/25 03:43:52;;;;;;;13.83;12.53;;;19.20;99.90;;;;;;6192928;23;20416;-83
2021/07/25 03:46:19;;;;;;;14.00;12.73;;;19.20;99.90;;;;;;6192480;23;20457;-82
2021/07/25 03:48:46;;;;;;;12.80;11.60;;;19.20;99.90;;;;;;6192042;23;20452;-82
2021/07/25 03:51:13;;;;;;;14.70;13.30;;;19.20;99.90;;;;;;6192166;23;20430;-83
2021/07/25 03:53:39;;;;;;;13.50;11.73;;;19.10;99.90;;;;;;6192683;23;20409;-82
2021/07/25 03:56:07;;;;;;;13.17;11.80;;;19.10;99.90;;;;;;6192311;23;20412;-83
2021/07/25 03:58:34;;;;;;;13.37;12.13;;;19.10;99.90;;;;;;6191765;23;20409;-82
2021/07/25 04:01:01;;;;;;;12.50;11.37;;;18.90;99.90;;;;;;6192398;23;21784;-82
2021/07/25 04:03:28;;;;;;;12.30;11.10;;;18.90;99.90;;;;;;6191811;23;20412;-83
2021/07/25 04:05:55;;;;;;;14.27;11.93;;;18.90;99.90;;;;;;6192684;23;20406;-82
2021/07/25 04:08:22;;;;;;;14.27;12.87;;;18.80;99.90;;;;;;6192113;23;20410;-83
2021/07/25 04:10:48;;;;;;;12.80;11.60;;;18.80;99.90;;;;;;6192318;23;20414;-83
2021/07/25 04:13:17;;;;;;;13.00;11.77;;;18.90;99.90;;;;;;6191408;23;20426;-83
2021/07/25 04:15:47;;;;;;;14.67;13.13;;;18.90;99.90;;;;;;6191801;23;20423;-82
2021/07/25 04:18:14;;;;;;;13.90;12.20;;;18.90;99.90;;;;;;6192631;23;20409;-82
2021/07/25 04:20:41;;;;;;;13.93;12.43;;;19.00;99.90;;;;;;6191998;23;20413;-82
2021/07/25 04:23:08;;;;;;;14.47;12.60;;;19.00;99.90;;;;;;6199572;23;20904;-82
2021/07/25 04:25:35;;;;;;;13.17;11.97;;;18.90;99.90;;;;;;6200311;23;20423;-83
2021/07/25 04:28:03;;;;;;;13.37;11.90;;;19.00;99.90;;;;;;6200666;23;20413;-83
2021/07/25 04:30:33;;;;;;;16.30;13.20;;;19.00;99.90;;;;;;6200062;23;20453;-82
2021/07/25 04:33:00;;;;;;;11.63;10.53;;;19.10;99.90;;;;;;6199136;23;20440;-82
2021/07/25 04:35:28;;;;;;;12.27;11.17;;;19.10;99.90;;;;;;6199717;23;20415;-83
2021/07/25 04:37:55;;;;;;;13.47;12.10;;;19.10;99.90;;;;;;6200096;23;20406;-83
2021/07/25 04:40:24;;;;;;;12.93;11.57;;;19.20;99.90;;;;;;6199947;23;20488;-83
2021/07/25 04:42:53;;;;;;;12.43;10.47;;;19.20;99.90;;;;;;6199908;23;20460;-83
2021/07/25 04:45:28;;;;;;;12.60;11.13;;;19.30;99.90;;;;;;6199342;23;20413;-82
2021/07/25 04:48:06;;;;;;;13.00;10.57;;;19.20;99.90;;;;;;6200421;23;20419;-83
2021/07/25 04:50:38;;;;;;;10.43;9.47;;;19.20;99.90;;;;;;6200773;23;20432;-81
2021/07/25 04:53:06;;;;;;;11.67;10.67;;;19.30;99.90;;;;;;6199241;23;20483;-83
2021/07/25 04:55:35;;;;;;;11.70;10.57;;;19.30;99.90;;;;;;6189863;23;20405;-81
2021/07/25 04:58:04;;;;;;;10.53;9.63;;;19.30;99.90;;;;;;6189174;23;20412;-81
2021/07/25 05:00:32;;;;;;;8.93;8.10;;;19.30;99.90;;;;;;6188235;23;20412;-82
2021/07/25 05:03:03;;;;;;;10.30;9.40;;;19.30;99.90;;;;;;6188244;23;20430;-82
2021/07/25 05:05:32;;;;;;;9.30;8.60;;;19.40;99.90;;;;;;6188092;23;20492;-82
2021/07/25 05:08:01;;;;;;;10.60;9.70;;;19.40;99.90;;;;;;6187902;23;20412;-82
2021/07/25 05:10:28;;;;;;;10.90;9.73;;;19.50;99.90;;;;;;6187453;23;20441;-82
2021/07/25 05:13:00;;;;;;;11.53;10.43;;;19.50;99.90;;;;;;6187267;23;20441;-82
2021/07/25 05:15:32;;;;;;;11.97;10.90;;;19.60;99.90;;;;;;6190299;23;20425;-81
2021/07/25 05:18:04;;;;;;;10.57;9.47;;;19.70;99.90;;;;;;6191120;23;20390;-81
2021/07/25 05:20:34;;;;;;;10.40;9.20;;;19.80;99.90;;;;;;6189551;23;20476;-82
2021/07/25 05:23:04;;;;;;;11.80;10.87;;;19.80;99.90;;;;;;6188157;23;20441;-82
2021/07/25 05:25:32;;;;;;;13.10;11.70;;;19.80;99.90;;;;;;6187830;23;20417;-81
2021/07/25 05:28:02;;;;;;;16.23;14.73;;;19.90;99.90;;;;;;6188338;23;20410;-82
2021/07/25 05:30:32;;;;;;;19.67;17.20;;;19.90;99.90;;;;;;6188167;23;20439;-82
2021/07/25 05:32:58;;;;;;;18.33;16.53;;;19.90;99.90;;;;;;6187582;23;20454;-81
2021/07/25 05:35:26;;;;;;;19.30;17.60;;;19.90;99.90;;;;;;6188452;23;20409;-82
2021/07/25 05:37:53;;;;;;;19.17;17.60;;;19.90;99.90;;;;;;6188310;23;20419;-82
2021/07/25 05:40:20;;;;;;;17.57;16.13;;;19.80;99.90;;;;;;6187931;23;20410;-81
2021/07/25 05:42:47;;;;;;;15.33;14.07;;;19.80;99.90;;;;;;6187147;23;20458;-81
2021/07/25 05:45:14;;;;;;;13.03;11.93;;;19.80;99.90;;;;;;6188114;23;20446;-82
2021/07/25 05:47:41;;;;;;;8.90;8.10;;;19.90;99.90;;;;;;6187993;23;21016;-81
2021/07/25 05:50:09;;;;;;;9.60;8.80;;;19.80;99.90;;;;;;6188171;23;20449;-81
2021/07/25 05:52:44;;;;;;;10.30;9.20;;;19.80;99.90;;;;;;6187593;23;20750;-82
2021/07/25 05:55:12;;;;;;;8.40;7.60;;;19.80;99.90;;;;;;6189497;23;20409;-81
2021/07/25 05:57:38;;;;;;;8.00;7.30;;;19.90;99.90;;;;;;6190061;23;20416;-81
2021/07/25 06:00:06;;;;;;;7.67;6.97;;;20.00;99.90;;;;;;6190224;23;20409;-81
2021/07/25 06:02:33;;;;;;;7.37;6.67;;;20.00;99.90;;;;;;6189707;23;20433;-81
2021/07/25 06:04:59;;;;;;;6.20;5.70;;;19.90;99.90;;;;;;6189395;23;20731;-81
2021/07/25 06:07:26;;;;;;;7.90;6.50;;;19.90;99.90;;;;;;6189337;23;20412;-81
2021/07/25 06:09:54;;;;;;;7.17;6.47;;;20.00;99.90;;;;;;6189473;23;20449;-81
2021/07/25 06:12:21;;;;;;;6.30;5.80;;;19.90;99.90;;;;;;6188892;23;20775;-81
2021/07/25 06:14:47;;;;;;;9.13;6.40;;;20.00;99.90;;;;;;6190833;23;20416;-82
2021/07/25 06:17:14;;;;;;;8.27;5.97;;;20.10;99.90;;;;;;6189963;23;20772;-81
2021/07/25 06:19:41;;;;;;;8.80;5.70;;;20.20;99.90;;;;;;6189895;23;20402;-81
2021/07/25 06:22:08;;;;;;;6.40;5.80;;;20.30;99.90;;;;;;6188295;23;20433;-81
2021/07/25 06:24:34;;;;;;;6.30;5.80;;;20.40;99.90;;;;;;6189840;23;20422;-82
2021/07/25 06:27:03;;;;;;;8.07;6.20;;;20.60;99.90;;;;;;6189646;23;20405;-82
2021/07/25 06:29:29;;;;;;;5.13;4.77;;;20.60;99.90;;;;;;6189497;23;20454;-82
2021/07/25 06:31:56;;;;;;;5.90;5.40;;;20.70;99.90;;;;;;6189525;23;20427;-82
2021/07/25 06:34:23;;;;;;;6.97;6.37;;;20.70;99.90;;;;;;6189412;23;20403;-82
2021/07/25 06:36:49;;;;;;;6.20;5.80;;;20.80;99.90;;;;;;6189845;23;20412;-82
2021/07/25 06:39:16;;;;;;;6.87;6.27;;;20.90;99.90;;;;;;6189124;23;20406;-82
2021/07/25 06:41:43;;;;;;;5.93;5.53;;;20.90;99.90;;;;;;6189523;23;20947;-83
2021/07/25 06:44:11;;;;;;;6.20;5.60;;;21.00;99.90;;;;;;6189475;23;20404;-83
2021/07/25 06:46:38;;;;;;;5.10;4.70;;;21.00;99.90;;;;;;6190835;23;20408;-83
2021/07/25 06:49:04;;;;;;;5.70;5.13;;;21.10;99.90;;;;;;6188429;23;20432;-84
2021/07/25 06:51:31;;;;;;;7.10;6.40;;;21.30;99.90;;;;;;6188058;23;20431;-83
2021/07/25 06:53:58;;;;;;;6.23;5.73;;;21.50;99.90;;;;;;6188479;23;20407;-83
2021/07/25 06:56:25;;;;;;;7.10;6.50;;;21.70;99.90;;;;;;6188395;23;20804;-83
2021/07/25 06:58:51;;;;;;;6.03;5.50;;;21.80;99.90;;;;;;6188313;23;20420;-83
2021/07/25 07:01:19;;;;;;;6.60;5.20;;;22.10;99.90;;;;;;6187937;23;20429;-83
2021/07/25 07:03:46;;;;;;;6.77;6.17;;;22.20;99.90;;;;;;6189290;23;20411;-83
2021/07/25 07:06:13;;;;;;;5.90;5.30;;;22.30;99.90;;;;;;6188781;23;20406;-83
2021/07/25 07:08:40;;;;;;;4.83;4.40;;;22.30;99.90;;;;;;6188680;23;20435;-83
2021/07/25 07:11:06;;;;;;;6.77;6.17;;;22.50;99.90;;;;;;6188101;23;20453;-82
2021/07/25 07:13:33;;;;;;;5.70;5.20;;;22.60;99.90;;;;;;6187792;23;20424;-83
2021/07/25 07:16:00;;;;;;;5.60;5.10;;;22.70;99.90;;;;;;6188396;23;20414;-83
2021/07/25 07:18:28;;;;;;;27.37;6.93;;;22.80;99.90;;;;;;6188084;23;20425;-82
2021/07/25 07:20:55;;;;;;;6.03;5.43;;;22.80;99.90;;;;;;6187652;23;20451;-83
2021/07/25 07:23:24;;;;;;;6.00;5.27;;;22.90;99.90;;;;;;6187521;23;20414;-83
2021/07/25 07:25:52;;;;;;;5.90;5.33;;;23.00;99.90;;;;;;6187851;23;20492;-83
2021/07/25 07:28:21;;;;;;;6.10;5.60;;;23.00;99.90;;;;;;6189211;23;20723;-83
2021/07/25 07:30:49;;;;;;;8.30;7.60;;;23.00;99.90;;;;;;6188399;23;20453;-83
2021/07/25 07:33:17;;;;;;;5.93;5.50;;;23.00;99.90;;;;;;6187971;23;20422;-83
2021/07/25 07:35:46;;;;;;;6.00;5.40;;;23.10;99.90;;;;;;6188616;23;20420;-83
2021/07/25 07:38:15;;;;;;;6.23;5.73;;;23.10;99.90;;;;;;6188751;23;20421;-82
2021/07/25 07:40:44;;;;;;;5.30;4.80;;;23.10;99.90;;;;;;6188605;23;20420;-83
2021/07/25 07:43:12;;;;;;;5.47;5.00;;;23.20;99.90;;;;;;6187946;23;21077;-83
2021/07/25 07:45:40;;;;;;;7.17;6.60;;;23.10;99.90;;;;;;6187801;23;20413;-83
2021/07/25 07:48:07;;;;;;;7.93;7.23;;;23.10;99.90;;;;;;6187433;23;20416;-83
2021/07/25 07:50:34;;;;;;;6.73;6.23;;;23.20;99.90;;;;;;6187733;23;20446;-83
2021/07/25 07:53:03;;;;;;;7.30;6.70;;;23.10;99.90;;;;;;6186854;23;20426;-82
2021/07/25 07:55:30;;;;;;;6.33;5.83;;;23.20;99.90;;;;;;6187164;23;20401;-82
2021/07/25 07:57:57;;;;;;;7.43;6.40;;;23.20;99.90;;;;;;6187293;23;20414;-83
2021/07/25 08:00:23;;;;;;;7.33;6.73;;;23.20;99.90;;;;;;6187512;23;20424;-83
2021/07/25 08:02:50;;;;;;;9.40;8.70;;;23.20;99.90;;;;;;6187607;23;20431;-83
2021/07/25 08:05:18;;;;;;;8.77;8.00;;;23.10;99.90;;;;;;6187861;23;20417;-83
2021/07/25 08:07:44;;;;;;;8.13;7.33;;;23.00;99.90;;;;;;6187096;23;20428;-82
2021/07/25 08:10:13;;;;;;;9.77;8.77;;;22.80;99.90;;;;;;6187166;23;20449;-83
2021/07/25 08:12:40;;;;;;;7.80;7.03;;;22.90;99.90;;;;;;6186215;23;20438;-83
2021/07/25 08:15:08;;;;;;;6.73;6.13;;;22.90;99.90;;;;;;6186705;23;20410;-83
2021/07/25 08:17:35;;;;;;;7.53;6.80;;;23.00;99.90;;;;;;6186257;23;20749;-83
2021/07/25 08:20:03;;;;;;;8.00;7.30;;;23.00;99.90;;;;;;6186684;23;20410;-83
2021/07/25 08:22:30;;;;;;;7.77;6.30;;;23.20;99.90;;;;;;6186426;23;20949;-83
2021/07/25 08:24:56;;;;;;;6.70;6.20;;;23.20;99.90;;;;;;6186328;23;20417;-83
2021/07/25 08:27:24;;;;;;;6.77;5.73;;;23.30;99.90;;;;;;6186305;23;20894;-83
2021/07/25 08:29:51;;;;;;;5.93;5.43;;;23.30;99.90;;;;;;6187345;23;20414;-82
2021/07/25 08:32:18;;;;;;;8.00;5.80;;;23.30;99.90;;;;;;6187231;23;20947;-84
2021/07/25 08:34:46;;;;;;;6.70;6.10;;;23.30;99.90;;;;;;6188768;23;20417;-84
2021/07/25 08:37:13;;;;;;;7.10;6.50;;;23.30;99.90;;;;;;6198999;23;20436;-83
2021/07/25 08:39:40;;;;;;;8.40;7.50;;;23.30;99.90;;;;;;6197905;23;20377;-84
2021/07/25 08:42:09;;;;;;;9.10;8.20;;;23.10;99.90;;;;;;6196066;23;20433;-84
2021/07/25 08:44:49;;;;;;;10.67;9.00;;;23.10;99.90;;;;;;6195360;23;20406;-84
2021/07/25 08:47:40;;;;;;;10.17;9.27;;;23.10;99.90;;;;;;6196941;23;20413;-84
2021/07/25 08:50:13;;;;;;;10.43;9.50;;;22.90;99.90;;;;;;6182863;23;20445;-84
2021/07/25 08:52:41;;;;;;;8.93;8.13;;;22.90;99.90;;;;;;6197901;23;20436;-84
2021/07/25 08:55:10;;;;;;;8.53;7.83;;;22.70;99.90;;;;;;6197287;23;20410;-84
2021/07/25 08:57:40;;;;;;;8.30;7.63;;;22.70;99.90;;;;;;6198221;23;20408;-84
2021/07/25 09:00:10;;;;;;;7.60;7.00;;;22.60;99.90;;;;;;6197834;23;20950;-83
2021/07/25 09:02:38;;;;;;;7.97;7.17;;;22.50;99.90;;;;;;6198423;23;20958;-83
2021/07/25 09:05:07;;;;;;;6.30;5.90;;;22.50;99.90;;;;;;6199912;23;20421;-83
2021/07/25 09:07:37;;;;;;;6.40;5.90;;;22.50;99.90;;;;;;6201458;23;20412;-84
2021/07/25 09:10:07;;;;;;;6.47;5.97;;;22.40;99.90;;;;;;6199375;23;20420;-85
2021/07/25 09:12:35;;;;;;;7.70;6.90;;;22.30;99.90;;;;;;6196932;23;20452;-83
2021/07/25 09:15:04;;;;;;;7.40;6.70;;;22.30;99.90;;;;;;6189941;23;20433;-84
2021/07/25 09:17:32;;;;;;;6.70;6.10;;;22.50;99.90;;;;;;6195535;23;20413;-83
2021/07/25 09:20:15;;;;;;;8.70;7.90;;;22.80;99.90;;;;;;6192789;23;20904;-85
2021/07/25 09:23:11;;;;;;;6.87;6.37;;;22.90;99.90;;;;;;6190458;23;20936;-85
2021/07/25 09:28:51;;;;;;;7.90;7.30;;;23.20;99.90;;;;;;6182810;23;20397;-85
2021/07/25 09:31:19;;;;;;;7.30;6.70;;;23.30;99.90;;;;;;6190525;23;20455;-87
2021/07/25 09:33:47;;;;;;;8.33;7.60;;;23.40;99.90;;;;;;6194138;23;20409;-84
2021/07/25 09:39:44;;;;;;;7.50;6.90;;;23.40;99.90;;;;;;4723583;27;11089974;-87
2021/07/25 09:42:12;;;;;;;6.80;6.20;;;23.30;99.90;;;;;;5103667;28;20238;-86
2021/07/25 09:44:53;;;;;;;7.30;6.70;;;23.10;99.90;;;;;;5099221;28;20427;-86
2021/07/25 09:47:44;;;;;;;6.83;6.33;;;23.00;99.90;;;;;;5096930;28;20452;-86
2021/07/25 09:50:38;;;;;;;7.47;6.77;;;22.80;99.90;;;;;;5069632;28;20515;-86
2021/07/25 09:53:13;;;;;;;7.40;6.80;;;22.60;99.90;;;;;;5089175;28;20491;-86
2021/07/25 09:55:41;;;;;;;9.50;8.60;;;22.40;99.90;;;;;;5092159;28;20486;-86
2021/07/25 09:58:10;;;;;;;7.83;7.23;;;22.30;99.90;;;;;;5090425;28;20878;-88
2021/07/25 10:00:42;;;;;;;6.93;6.27;;;22.10;99.90;;;;;;5094128;28;20444;-86
2021/07/25 10:03:32;;;;;;;5.57;5.07;;;21.90;99.90;;;;;;5091857;28;20552;-86
2021/07/25 10:05:59;;;;;;;6.30;5.07;;;21.80;99.90;;;;;;5094909;28;20490;-86
2021/07/25 10:08:26;;;;;;;6.90;6.40;;;21.60;99.90;;;;;;5093645;28;20452;-85
2021/07/25 10:11:00;;;;;;;6.80;6.20;;;21.50;99.90;;;;;;5091564;28;20459;-87
2021/07/25 10:13:45;;;;;;;6.70;6.20;;;21.50;99.90;;;;;;5091404;28;20459;-87
2021/07/25 10:16:23;;;;;;;9.53;7.00;;;21.40;99.90;;;;;;5090043;28;20454;-87
2021/07/25 10:22:14;;;;;;;8.13;7.00;;;21.20;99.90;;;;;;5091613;28;20464;-86
2021/07/25 10:25:09;;;;;;;7.67;6.90;;;21.00;99.90;;;;;;5089662;28;20845;-87
2021/07/25 10:27:39;;;;;;;8.47;7.67;;;21.00;99.90;;;;;;5090570;28;20475;-85
2021/07/25 10:30:24;;;;;;;7.80;7.10;;;21.10;99.90;;;;;;5091531;28;20813;-86
2021/07/25 10:36:04;;;;;;;7.53;6.83;;;20.90;99.90;;;;;;5091611;28;20410;-86
2021/07/25 10:38:39;;;;;;;9.30;8.20;;;20.90;99.90;;;;;;5092939;28;20486;-86
2021/07/25 10:45:11;;;;;;;8.50;7.47;;;20.90;99.90;;;;;;5062943;28;20618;-86
2021/07/25 10:47:39;;;;;;;7.80;7.20;;;20.90;99.90;;;;;;5078773;28;20443;-87
2021/07/25 10:50:11;;;;;;;7.80;7.00;;;20.90;99.90;;;;;;5085464;28;20443;-87
2021/07/25 10:53:01;;;;;;;7.73;7.13;;;21.00;99.90;;;;;;5081140;28;20456;-87
2021/07/25 10:55:45;;;;;;;8.30;7.50;;;21.00;99.90;;;;;;5079346;28;20534;-86
2021/07/25 10:58:13;;;;;;;8.90;8.10;;;21.10;99.90;;;;;;5075123;28;20475;-85
2021/07/25 11:00:41;;;;;;;8.47;7.87;;;21.10;99.90;;;;;;5076127;28;20456;-85
2021/07/25 11:03:38;;;;;;;8.33;7.53;;;21.10;99.90;;;;;;5068249;28;20464;-85
2021/07/25 11:06:48;;;;;;;9.77;8.77;;;21.10;99.90;;;;;;5059184;28;20463;-87
2021/07/25 11:17:14;;;;;;;9.90;8.67;;;21.30;99.90;;;;;;4919458;29;20433;-84
2021/07/25 11:19:48;;;;;;;9.97;9.07;;;21.40;99.90;;;;;;4949777;28;20885;-86
2021/07/25 11:23:01;;;;;;;9.17;8.17;;;21.50;99.90;;;;;;5042247;28;20468;-86
2021/07/25 11:25:29;;;;;;;8.43;7.73;;;21.50;99.90;;;;;;5012064;28;20462;-83
2021/07/25 11:27:56;;;;;;;8.23;7.53;;;21.50;99.90;;;;;;5047378;28;20458;-84
2021/07/25 11:33:53;;;;;;;7.60;6.90;;;21.60;99.90;;;;;;5043255;28;20453;-84
2021/07/25 11:36:29;;;;;;;7.87;7.23;;;21.60;99.90;;;;;;5045488;28;20463;-84
2021/07/25 11:39:08;;;;;;;8.27;7.50;;;21.60;99.90;;;;;;5046673;28;20485;-85
2021/07/25 11:41:56;;;;;;;9.17;8.37;;;21.60;99.90;;;;;;5044091;28;20485;-86
2021/07/25 11:44:43;;;;;;;10.63;9.53;;;21.60;99.90;;;;;;5043812;28;20455;-87
2021/07/25 11:47:10;;;;;;;9.80;8.90;;;21.60;99.90;;;;;;5042395;28;20454;-88
2021/07/25 11:49:40;;;;;;;9.33;8.43;;;21.60;99.90;;;;;;5035200;28;20462;-89
2021/07/25 11:52:10;;;;;;;9.63;8.80;;;21.70;99.90;;;;;;5039675;28;20561;-85
2021/07/25 11:54:39;;;;;;;9.33;8.63;;;21.70;99.90;;;;;;5040004;28;20454;-87
2021/07/25 11:57:07;;;;;;;8.87;8.07;;;21.70;99.90;;;;;;5040651;28;20448;-87
2021/07/25 12:03:31;;;;;;;9.83;8.53;;;21.90;99.90;;;;;;4951300;28;20476;-90
2021/07/25 12:06:19;;;;;;;10.50;9.60;;;22.00;99.90;;;;;;4962101;28;21094;-89
2021/07/25 12:09:07;;;;;;;9.47;8.67;;;21.80;99.90;;;;;;5024913;28;21085;-88
2021/07/25 12:11:34;;;;;;;8.17;7.57;;;21.70;99.90;;;;;;5033502;28;20460;-89
2021/07/25 12:14:01;;;;;;;12.47;8.03;;;21.70;99.90;;;;;;5038744;28;20964;-88
2021/07/25 12:16:50;;;;;;;7.00;6.40;;;21.60;99.90;;;;;;5040249;28;20447;-84
2021/07/25 12:19:18;;;;;;;7.97;7.10;;;21.60;99.90;;;;;;5034053;28;20489;-85
2021/07/25 12:21:46;;;;;;;7.87;7.17;;;21.50;99.90;;;;;;5032430;28;20481;-88
2021/07/25 12:24:32;;;;;;;8.37;7.57;;;21.40;99.90;;;;;;5032273;28;20992;-86
2021/07/25 12:27:00;;;;;;;7.73;7.00;;;21.30;99.90;;;;;;5032638;28;20965;-84
2021/07/25 12:29:38;;;;;;;7.43;6.73;;;21.20;99.90;;;;;;5034516;28;20783;-84
2021/07/25 12:32:25;;;;;;;8.13;7.53;;;21.20;99.90;;;;;;5033488;28;20837;-84
2021/07/25 12:34:53;;;;;;;8.07;7.37;;;21.20;99.90;;;;;;5037010;28;20432;-84
2021/07/25 12:37:27;;;;;;;7.73;7.03;;;21.10;99.90;;;;;;5035581;28;20450;-84
2021/07/25 12:40:14;;;;;;;8.23;7.53;;;21.10;99.90;;;;;;5034768;28;20490;-86
2021/07/25 12:42:47;;;;;;;7.93;7.33;;;21.00;99.90;;;;;;5031882;28;20497;-86
2021/07/25 12:45:37;;;;;;;11.30;8.83;;;21.10;99.90;;;;;;5036279;28;20449;-87
2021/07/25 12:48:37;;;;;;;8.23;7.53;;;21.10;99.90;;;;;;5044017;28;20460;-87
2021/07/25 13:04:25;;;;;;;6.53;6.03;;;22.30;99.90;;;;;;5013807;28;20438;-87
2021/07/25 13:06:56;;;;;;;7.27;6.57;;;22.60;99.90;;;;;;5010645;28;20455;-89
2021/07/25 13:09:34;;;;;;;7.87;6.80;;;22.90;99.90;;;;;;5040812;28;20443;-85
2021/07/25 13:12:01;;;;;;;7.57;6.73;;;23.10;99.90;;;;;;5040487;28;20476;-85
2021/07/25 13:14:45;;;;;;;;;;;;;;;;;;;;;
2021/07/25 13:17:13;;;;;;;6.87;6.37;;;23.90;99.90;;;;;;5032617;28;20479;-87
2021/07/25 13:19:52;;;;;;;7.53;6.93;;;24.20;99.90;;;;;;5031075;28;20564;-85
2021/07/25 13:22:19;;;;;;;6.77;6.27;;;24.50;99.90;;;;;;5031138;28;20481;-85
2021/07/25 13:24:47;;;;;;;7.20;6.60;;;24.70;99.90;;;;;;5031499;28;20472;-85
2021/07/25 13:27:13;;;;;;;8.17;7.40;;;24.80;99.90;;;;;;5031965;28;20442;-87
2021/07/25 13:29:42;;;;;;;8.00;7.40;;;24.60;99.90;;;;;;5031231;28;20796;-85
2021/07/25 13:32:08;;;;;;;7.53;6.90;;;24.60;99.90;;;;;;5030855;28;20482;-85
2021/07/25 13:34:35;;;;;;;9.00;8.20;;;24.60;99.90;;;;;;5031321;28;20489;-85
2021/07/25 13:37:03;;;;;;;7.03;6.53;;;24.50;99.90;;;;;;5031196;28;20548;-87
2021/07/25 13:39:30;;;;;;;7.90;7.20;;;24.50;99.90;;;;;;5031700;28;20485;-87